• Join FlightAware (Why Join?)
  • Login
  • US Flag 
09:34AM EST


 

Airport Tracker/Info


-or-


 

Live Flight TrackerFlight Track Log ✈ G52618 ✈ 09-Oct-2013 ✈ ZGWZ / WUZ - ZUGY / KWE

Flight Track Log - Related Links

Times and Time Zones

All times are in EDT time to prevent confusion due to time zone crossing. See the G52618 flight status page for this flight to view local times or setup timezone preferences in your user account.

Time Position Orientation Groundspeed Altitude Reporting Facility
EDT Latitude Longitude Course Direction KTS MPH feet Rate Location/Type
12:19AM 23.8491 110.7040 308° West  Level Estimated
12:20AM 23.8980 110.6357 308° West  Level Estimated
12:21AM 23.9403 110.5767 308° West  Level Estimated
12:22AM 23.9825 110.5176 308° West  Level Estimated
12:23AM 24.0248 110.4584 308° West  Level Estimated
12:24AM 24.0670 110.3992 308° West  Level Estimated
12:25AM 24.1092 110.3400 308° West  Level Estimated
12:26AM 24.1514 110.2808 308° West  Level Estimated
12:27AM 24.1935 110.2215 308° West  Level Estimated
12:28AM 24.2356 110.1621 308° West  Level Estimated
12:29AM 24.2777 110.1028 308° West  Level Estimated
12:30AM 24.3198 110.0434 308° West  Level Estimated
12:31AM 24.3619 109.9839 308° West  Level Estimated
12:32AM 24.4039 109.9244 308° West  Level Estimated
12:33AM 24.4459 109.8649 308° West  Level Estimated
12:34AM 24.4879 109.8053 308° West  Level Estimated
12:35AM 24.5298 109.7457 308° West  Level Estimated
12:36AM 24.5718 109.6861 308° West  Level Estimated
12:37AM 24.6137 109.6264 308° West  Level Estimated
12:38AM 24.6556 109.5666 308° West  Level Estimated
12:39AM 24.6974 109.5069 308° West  Level Estimated
12:40AM 24.7393 109.4471 308° West  Level Estimated
12:41AM 24.7811 109.3872 308° West  Level Estimated
12:42AM 24.8229 109.3273 308° West  Level Estimated
12:43AM 24.8647 109.2674 308° West  Level Estimated
12:44AM 24.9064 109.2074 308° West  Level Estimated
12:45AM 24.9481 109.1474 307° West  Level Estimated
12:46AM 24.9898 109.0873 307° West  Level Estimated
12:47AM 25.0315 109.0273 307° West  Level Estimated
12:48AM 25.0732 108.9671 307° West  Level Estimated
12:49AM 25.1148 108.9069 307° West  Level Estimated
12:50AM 25.1564 108.8467 307° West  Level Estimated
12:51AM 25.1980 108.7865 307° West  Level Estimated
12:52AM 25.2395 108.7262 307° West  Level Estimated
12:53AM 25.2810 108.6658 307° West  Level Estimated
12:54AM 25.3225 108.6054 307° West  Level Estimated
12:55AM 25.3640 108.5450 307° West  Level Estimated
12:56AM 25.4055 108.4845 307° West  Level Estimated
12:57AM 25.4469 108.4240 307° West  Level Estimated
12:58AM 25.4883 108.3635 307° West  Level Estimated
12:59AM 25.5297 108.3029 307° West  Level Estimated
01:00AM 25.5711 108.2423 307° West  Level Estimated
01:01AM 25.6124 108.1816 307° West  Level Estimated
01:02AM 25.6537 108.1209 307° West  Level Estimated
01:03AM 25.6950 108.0601 307° West  Level Estimated
01:04AM 25.7362 107.9993 307° West  Level Estimated
01:05AM 25.7775 107.9385 307° West  Level Estimated
01:06AM 25.8187 107.8776 307° West  Level Estimated
01:07AM 25.8598 107.8167 307° West  Level Estimated
01:08AM 25.9010 107.7557 307° West  Level Estimated
01:09AM 25.9421 107.6947 307° West  Level Estimated
01:10AM 25.9832 107.6336 307° West  Level Estimated
01:11AM 26.0243 107.5725 307° West  Level Estimated
01:12AM 26.0653 107.5114 307° West  Level Estimated
01:13AM 26.1064 107.4502 307° West  Level Estimated
01:14AM 26.1474 107.3890 307° West  Level Estimated
01:15AM 26.1884 107.3277 307° West  Level Estimated
01:16AM 26.2293 107.2664 307° West  Level Estimated
01:17AM 26.2702 107.2050 307° West  Level Estimated
01:18AM 26.3111 107.1436 307° West  Level Estimated
01:19AM 26.3520 107.0822 307° West  Level Estimated
01:20AM 26.3928 107.0207 307° West  Level Estimated
01:21AM 26.4336 106.9592 307° West  Level Estimated
01:22AM 26.4744 106.8976 307° West  Level Estimated
01:23AM 26.5152 106.8360 306° West  Level Estimated